createdAt,value
2018-12-06T00:02:14.517Z,65.40
2018-12-06T00:04:42.988Z,65.10
2018-12-06T00:07:12.286Z,65.00
2018-12-06T00:09:40.783Z,64.60
2018-12-06T00:12:09.166Z,65.10
2018-12-06T00:14:37.691Z,65.00
2018-12-06T00:17:07.745Z,64.80
2018-12-06T00:19:37.280Z,65.10
2018-12-06T00:22:05.659Z,65.20
2018-12-06T00:24:34.154Z,65.50
2018-12-06T00:27:04.701Z,65.90
2018-12-06T00:29:33.269Z,65.90
2018-12-06T00:32:01.708Z,65.40
2018-12-06T00:34:33.315Z,65.60
2018-12-06T00:37:02.021Z,65.50
2018-12-06T00:39:30.573Z,65.10
2018-12-06T00:41:59.060Z,65.70
2018-12-06T00:44:27.489Z,65.30
2018-12-06T00:46:55.917Z,65.20
2018-12-06T00:49:25.426Z,65.10
2018-12-06T00:51:53.918Z,65.30
2018-12-06T00:54:23.227Z,65.50
2018-12-06T00:56:51.745Z,66.20
2018-12-06T00:59:20.157Z,65.60
2018-12-06T01:01:48.730Z,65.50
2018-12-06T01:04:17.074Z,65.40
2018-12-06T01:06:45.796Z,65.10
2018-12-06T01:09:14.294Z,65.20
2018-12-06T01:11:42.925Z,65.30
2018-12-06T01:14:11.372Z,65.50
2018-12-06T01:16:39.922Z,65.60
2018-12-06T01:19:08.310Z,65.80
2018-12-06T01:21:36.718Z,65.60
2018-12-06T01:24:05.172Z,66.40
2018-12-06T01:26:34.553Z,65.10
2018-12-06T01:29:03.070Z,66.10
2018-12-06T01:31:31.894Z,65.30
2018-12-06T01:34:01.242Z,66.00
2018-12-06T01:36:29.786Z,66.00
2018-12-06T01:38:58.180Z,65.50
2018-12-06T01:41:26.607Z,65.60
2018-12-06T01:43:55.073Z,65.90
2018-12-06T01:46:24.463Z,66.00
2018-12-06T01:48:52.850Z,65.90
2018-12-06T01:51:21.419Z,65.90
2018-12-06T01:53:49.818Z,66.10
2018-12-06T01:56:22.003Z,66.20
2018-12-06T01:58:50.388Z,66.40
2018-12-06T02:01:18.846Z,66.80
2018-12-06T02:03:48.360Z,66.20
2018-12-06T02:06:16.826Z,66.10
2018-12-06T02:08:46.954Z,66.30
2018-12-06T02:11:15.322Z,66.40
2018-12-06T02:13:43.810Z,65.90
2018-12-06T02:16:12.263Z,65.80
2018-12-06T02:18:40.708Z,65.80
2018-12-06T02:21:09.202Z,65.50
2018-12-06T02:23:37.630Z,65.60
2018-12-06T02:26:06.244Z,65.80
2018-12-06T02:28:34.718Z,66.00
2018-12-06T02:31:03.270Z,66.30
2018-12-06T02:33:31.651Z,66.80
2018-12-06T02:36:00.220Z,66.50
2018-12-06T02:38:28.642Z,66.20
2018-12-06T02:40:57.210Z,66.50
2018-12-06T02:43:25.601Z,66.50
2018-12-06T02:45:54.053Z,67.00
2018-12-06T02:48:22.860Z,67.00
2018-12-06T02:50:51.353Z,66.90
2018-12-06T02:53:19.970Z,67.20
2018-12-06T02:55:48.466Z,67.50
2018-12-06T02:58:16.929Z,67.50
2018-12-06T03:00:45.615Z,67.50
2018-12-06T03:03:15.551Z,67.30
2018-12-06T03:05:44.031Z,67.40
2018-12-06T03:08:12.484Z,67.50
2018-12-06T03:10:41.920Z,67.30
2018-12-06T03:13:10.330Z,67.60
2018-12-06T03:15:39.738Z,67.90
2018-12-06T03:18:09.122Z,68.00
2018-12-06T03:20:37.519Z,68.70
2018-12-06T03:23:06.505Z,68.00
2018-12-06T03:25:35.025Z,68.10
2018-12-06T03:28:03.448Z,68.40
2018-12-06T03:30:31.909Z,68.60
2018-12-06T03:33:01.825Z,68.60
2018-12-06T03:35:30.245Z,68.50
2018-12-06T03:37:58.641Z,68.50
2018-12-06T03:40:27.098Z,68.40
2018-12-06T03:42:55.473Z,68.80
2018-12-06T03:45:23.952Z,69.20
2018-12-06T03:47:52.645Z,69.70
2018-12-06T03:50:20.989Z,69.40
2018-12-06T03:52:50.845Z,69.30
2018-12-06T03:55:19.360Z,69.20
2018-12-06T03:57:47.809Z,69.10
2018-12-06T04:00:16.238Z,69.10
2018-12-06T04:02:44.741Z,69.50
2018-12-06T04:05:13.266Z,69.40
2018-12-06T04:07:41.671Z,69.20
2018-12-06T04:10:10.074Z,69.70
2018-12-06T04:12:38.475Z,69.70
2018-12-06T04:18:05.844Z,69.80
2018-12-06T04:20:34.237Z,70.00
2018-12-06T04:23:02.631Z,70.00
2018-12-06T04:25:31.013Z,70.40
2018-12-06T04:27:59.407Z,69.90
2018-12-06T04:30:27.790Z,70.30
2018-12-06T04:32:56.939Z,70.70
2018-12-06T04:35:26.906Z,71.10
2018-12-06T04:37:55.278Z,71.80
2018-12-06T04:40:23.706Z,71.10
2018-12-06T04:42:52.131Z,70.80
2018-12-06T04:45:20.513Z,70.70
2018-12-06T04:47:49.472Z,70.70
2018-12-06T04:50:17.984Z,70.50
2018-12-06T04:52:46.586Z,70.80
2018-12-06T04:55:15.806Z,70.50
2018-12-06T04:57:44.188Z,70.50
2018-12-06T05:00:13.081Z,70.60
2018-12-06T05:02:41.557Z,70.60
2018-12-06T05:05:10.027Z,71.20
2018-12-06T05:07:38.355Z,70.50
2018-12-06T05:10:06.970Z,70.90
2018-12-06T05:12:35.324Z,71.30
2018-12-06T05:15:03.985Z,71.30
2018-12-06T05:17:32.572Z,70.80
2018-12-06T05:20:01.083Z,71.10
2018-12-06T05:22:29.497Z,71.10
2018-12-06T05:24:59.198Z,71.40
2018-12-06T05:27:27.562Z,72.00
2018-12-06T05:29:56.027Z,71.80
2018-12-06T05:32:24.409Z,72.20
2018-12-06T05:34:52.777Z,72.10
2018-12-06T05:37:22.731Z,72.10
2018-12-06T05:39:51.147Z,72.40
2018-12-06T05:42:19.572Z,72.40
2018-12-06T05:44:49.080Z,72.70
2018-12-06T05:47:18.517Z,72.50
2018-12-06T05:49:46.866Z,72.60
2018-12-06T05:52:15.219Z,72.90
2018-12-06T05:54:43.585Z,72.90
2018-12-06T05:57:11.989Z,72.90
2018-12-06T05:59:40.358Z,72.90
2018-12-06T06:02:09.991Z,73.30
2018-12-06T06:04:38.405Z,73.30
2018-12-06T06:07:06.917Z,73.30
2018-12-06T06:09:35.323Z,72.90
2018-12-06T06:12:03.807Z,74.00
2018-12-06T06:14:32.212Z,73.70
2018-12-06T06:17:00.529Z,73.80
2018-12-06T06:19:28.993Z,74.20
2018-12-06T06:21:58.646Z,74.10
2018-12-06T06:24:27.779Z,74.40
2018-12-06T06:26:56.547Z,74.20
2018-12-06T06:29:24.982Z,74.90
2018-12-06T06:31:53.382Z,75.10
2018-12-06T06:34:21.782Z,74.40
2018-12-06T06:36:50.617Z,74.20
2018-12-06T06:39:20.004Z,74.70
2018-12-06T06:41:49.710Z,74.70
2018-12-06T06:44:18.094Z,74.40
2018-12-06T06:46:51.918Z,74.60
2018-12-06T06:49:21.598Z,74.70
2018-12-06T06:51:50.112Z,74.40
2018-12-06T06:54:18.639Z,74.50
2018-12-06T06:56:47.011Z,75.50
2018-12-06T06:59:15.434Z,74.80
2018-12-06T07:01:44.337Z,74.60
2018-12-06T07:04:12.673Z,75.00
2018-12-06T07:06:41.026Z,74.60
2018-12-06T07:09:09.566Z,74.50
2018-12-06T07:11:38.942Z,74.60
2018-12-06T07:14:07.335Z,74.90
2018-12-06T07:16:37.207Z,74.90
2018-12-06T07:19:05.629Z,74.90
2018-12-06T07:21:33.986Z,75.20
2018-12-06T07:24:02.557Z,75.00
2018-12-06T07:26:30.984Z,74.70
2018-12-06T07:29:00.610Z,74.60
2018-12-06T07:31:29.023Z,74.80
2018-12-06T07:33:58.453Z,74.60
2018-12-06T07:36:27.882Z,74.80
2018-12-06T07:38:56.226Z,74.90
2018-12-06T07:41:24.601Z,74.40
2018-12-06T07:43:52.997Z,74.70
2018-12-06T07:46:21.353Z,74.90
2018-12-06T07:48:49.733Z,74.90
2018-12-06T07:51:18.101Z,75.00
2018-12-06T07:53:46.527Z,75.10
2018-12-06T07:56:16.468Z,75.00
2018-12-06T07:58:44.971Z,74.60
2018-12-06T08:01:15.312Z,74.60
2018-12-06T08:03:44.949Z,74.80
2018-12-06T08:06:13.302Z,75.10
2018-12-06T08:08:43.748Z,75.10
2018-12-06T08:11:12.118Z,74.90
2018-12-06T08:13:42.124Z,74.90
2018-12-06T08:16:10.459Z,74.60
2018-12-06T08:18:41.299Z,75.10
2018-12-06T08:21:09.616Z,75.00
2018-12-06T08:23:38.140Z,74.70
2018-12-06T08:26:06.501Z,74.40
2018-12-06T08:28:35.971Z,74.70
2018-12-06T08:31:04.348Z,74.70
2018-12-06T08:33:32.736Z,75.30
2018-12-06T08:36:01.130Z,75.30
2018-12-06T08:38:31.422Z,75.00
2018-12-06T08:40:59.857Z,75.20
2018-12-06T08:43:29.233Z,75.00
2018-12-06T08:45:58.677Z,75.00
2018-12-06T08:48:27.064Z,74.90
2018-12-06T08:50:55.482Z,75.50
2018-12-06T08:53:23.861Z,74.60
2018-12-06T08:55:53.373Z,74.90
2018-12-06T08:58:22.777Z,75.00
2018-12-06T09:00:51.112Z,75.00
2018-12-06T09:03:19.563Z,75.00
2018-12-06T09:05:48.954Z,74.70
2018-12-06T09:08:18.498Z,75.00
2018-12-06T09:10:51.512Z,75.10
2018-12-06T09:13:17.403Z,75.10
2018-12-06T09:15:46.805Z,75.50
2018-12-06T09:18:15.224Z,75.00
2018-12-06T09:20:44.580Z,75.40
2018-12-06T09:23:12.917Z,75.40
2018-12-06T09:25:42.361Z,75.10
2018-12-06T09:28:11.721Z,75.40
2018-12-06T09:30:43.095Z,75.30
2018-12-06T09:33:31.347Z,75.20
2018-12-06T09:36:01.850Z,75.30
2018-12-06T09:38:36.412Z,75.10
2018-12-06T09:41:04.763Z,75.30
2018-12-06T09:43:33.132Z,75.20
2018-12-06T09:46:01.516Z,75.50
2018-12-06T09:48:29.934Z,75.80
2018-12-06T09:50:58.518Z,75.60
2018-12-06T09:53:27.083Z,75.60
2018-12-06T09:55:55.454Z,76.40
2018-12-06T09:58:25.323Z,75.40
2018-12-06T10:01:57.454Z,75.30
2018-12-06T10:04:25.991Z,75.00
2018-12-06T10:06:55.216Z,75.80
2018-12-06T10:09:23.682Z,75.90
2018-12-06T10:11:52.229Z,75.60
2018-12-06T10:14:20.731Z,75.50
2018-12-06T10:16:49.272Z,75.60
2018-12-06T10:19:17.648Z,75.50
2018-12-06T10:21:46.165Z,75.60
2018-12-06T10:24:14.655Z,75.70
2018-12-06T10:26:43.154Z,75.90
2018-12-06T10:29:11.728Z,75.80
2018-12-06T10:31:40.167Z,75.60
2018-12-06T10:34:08.490Z,75.30
2018-12-06T10:36:36.925Z,75.30
2018-12-06T10:39:07.763Z,75.10
2018-12-06T10:41:36.236Z,75.50
2018-12-06T10:44:04.880Z,75.70
2018-12-06T10:46:33.309Z,74.50
2018-12-06T10:49:01.818Z,74.90
2018-12-06T10:51:41.006Z,75.10
2018-12-06T10:54:09.577Z,75.00
2018-12-06T10:56:37.977Z,74.80
2018-12-06T10:59:06.387Z,75.00
2018-12-06T11:01:40.103Z,75.20
2018-12-06T11:04:08.593Z,75.20
2018-12-06T11:06:37.102Z,75.20
2018-12-06T11:09:07.602Z,75.00
2018-12-06T11:11:36.106Z,75.30
2018-12-06T11:14:05.380Z,75.50
2018-12-06T11:16:33.873Z,75.70
2018-12-06T11:19:02.609Z,75.50
2018-12-06T11:21:32.662Z,75.40
2018-12-06T11:24:01.172Z,75.70
2018-12-06T11:26:29.622Z,75.90
2018-12-06T11:28:58.073Z,75.60
2018-12-06T11:31:27.528Z,75.30
2018-12-06T11:33:55.965Z,75.60
2018-12-06T11:36:24.438Z,75.50
2018-12-06T11:38:53.838Z,75.70
2018-12-06T11:41:23.306Z,75.60
2018-12-06T11:43:51.792Z,75.60
2018-12-06T11:46:21.233Z,75.60
2018-12-06T11:48:51.087Z,75.60
2018-12-06T11:51:19.900Z,76.50
2018-12-06T11:53:48.770Z,75.70
2018-12-06T11:56:17.193Z,75.30
2018-12-06T11:58:45.589Z,74.90
2018-12-06T12:01:14.072Z,75.00
2018-12-06T12:03:42.591Z,75.00
2018-12-06T12:06:11.235Z,75.20
2018-12-06T12:08:39.619Z,75.00
2018-12-06T12:11:09.116Z,75.20
2018-12-06T12:13:37.514Z,74.80
2018-12-06T12:16:06.606Z,75.10
2018-12-06T12:18:35.078Z,75.20
2018-12-06T12:21:03.510Z,75.50
2018-12-06T12:23:31.999Z,75.50
2018-12-06T12:26:00.419Z,75.60
2018-12-06T12:28:28.926Z,75.70
2018-12-06T12:30:57.399Z,75.70
2018-12-06T12:33:25.898Z,75.90
2018-12-06T12:36:01.154Z,76.10
2018-12-06T12:38:29.631Z,76.30
2018-12-06T12:40:58.223Z,76.10
2018-12-06T12:43:26.629Z,76.30
2018-12-06T12:45:54.996Z,76.30
2018-12-06T12:48:23.460Z,76.30
2018-12-06T12:50:56.797Z,76.20
2018-12-06T12:53:25.239Z,76.20
2018-12-06T12:55:53.653Z,76.40
2018-12-06T12:58:22.061Z,76.20
2018-12-06T13:00:50.674Z,76.20
2018-12-06T13:03:19.111Z,76.30
2018-12-06T13:05:47.503Z,76.40
2018-12-06T13:08:16.075Z,76.20
2018-12-06T13:10:45.515Z,76.20
2018-12-06T13:13:13.999Z,76.10
2018-12-06T13:15:42.526Z,76.10
2018-12-06T13:18:16.022Z,76.00
2018-12-06T13:20:51.987Z,76.10
2018-12-06T13:23:20.585Z,76.30
2018-12-06T13:25:49.936Z,76.10
2018-12-06T13:28:18.414Z,76.20
2018-12-06T13:30:47.007Z,76.30
2018-12-06T13:33:15.606Z,76.40
2018-12-06T13:35:44.097Z,76.40
2018-12-06T13:38:12.501Z,76.50
2018-12-06T13:40:40.991Z,76.60
2018-12-06T13:43:09.614Z,76.60
2018-12-06T13:46:26.666Z,76.60
2018-12-06T13:48:55.140Z,76.50
2018-12-06T13:51:23.492Z,76.60
2018-12-06T13:53:51.860Z,76.90
2018-12-06T13:56:21.274Z,77.00
2018-12-06T13:58:49.683Z,76.80
2018-12-06T14:01:19.166Z,76.70
2018-12-06T14:03:47.770Z,76.80
2018-12-06T14:06:17.238Z,76.80
2018-12-06T14:08:45.662Z,76.80
2018-12-06T14:11:13.999Z,76.90
2018-12-06T14:13:42.386Z,77.00
2018-12-06T14:16:10.859Z,77.00
2018-12-06T14:18:40.502Z,77.10
2018-12-06T14:21:09.864Z,77.10
2018-12-06T14:23:39.313Z,77.10
2018-12-06T14:26:07.761Z,77.00
2018-12-06T14:28:36.167Z,77.00
2018-12-06T14:31:04.473Z,77.00
2018-12-06T14:33:32.826Z,77.10
2018-12-06T14:36:01.326Z,77.10
2018-12-06T14:38:30.485Z,77.20
2018-12-06T14:40:58.952Z,77.30
2018-12-06T14:43:27.551Z,77.20
2018-12-06T14:45:56.534Z,77.20
2018-12-06T14:48:25.227Z,77.10
2018-12-06T14:50:53.633Z,77.20
2018-12-06T14:53:22.129Z,77.20
2018-12-06T14:55:50.437Z,77.20
2018-12-06T14:58:18.838Z,75.50
2018-12-06T15:00:47.231Z,77.20
2018-12-06T15:03:15.585Z,77.30
2018-12-06T15:05:44.001Z,77.30
2018-12-06T15:08:20.702Z,77.40
2018-12-06T15:10:49.020Z,77.30
2018-12-06T15:13:17.926Z,77.50
2018-12-06T15:15:46.311Z,77.40
2018-12-06T15:18:14.703Z,77.50
2018-12-06T15:20:43.208Z,77.60
2018-12-06T15:23:15.832Z,77.50
2018-12-06T15:25:49.890Z,77.30
2018-12-06T15:28:18.354Z,76.30
2018-12-06T15:30:46.924Z,76.40
2018-12-06T15:33:15.473Z,77.60
2018-12-06T15:35:49.103Z,77.60
2018-12-06T15:38:34.749Z,77.50
2018-12-06T15:41:06.165Z,76.50
2018-12-06T15:43:34.543Z,76.50
2018-12-06T15:46:03.916Z,76.50
2018-12-06T15:48:34.259Z,76.60
2018-12-06T15:51:02.618Z,76.50
2018-12-06T15:53:32.040Z,76.50
2018-12-06T15:56:00.517Z,76.40
2018-12-06T15:58:28.894Z,76.40
2018-12-06T16:00:57.400Z,76.50
2018-12-06T16:03:25.842Z,76.40
2018-12-06T16:06:02.386Z,76.50
2018-12-06T16:08:31.158Z,76.60
2018-12-06T16:11:14.151Z,76.60
2018-12-06T16:13:42.571Z,77.50
2018-12-06T16:16:10.985Z,76.60
2018-12-06T16:18:39.402Z,76.60
2018-12-06T16:21:07.762Z,76.60
2018-12-06T16:23:36.187Z,76.60
2018-12-06T16:26:05.719Z,76.60
2018-12-06T16:28:34.137Z,76.60
2018-12-06T16:31:04.750Z,76.70
2018-12-06T16:33:33.199Z,76.50
2018-12-06T16:36:01.625Z,76.50
2018-12-06T16:38:30.215Z,76.60
2018-12-06T16:40:58.631Z,76.50
2018-12-06T16:43:27.135Z,76.60
2018-12-06T16:45:55.458Z,76.60
2018-12-06T16:48:23.826Z,76.40
2018-12-06T16:50:54.344Z,76.40
2018-12-06T16:53:22.933Z,76.30
2018-12-06T16:55:51.451Z,76.30
2018-12-06T16:58:19.959Z,76.10
2018-12-06T17:00:49.054Z,76.20
2018-12-06T17:03:17.562Z,76.20
2018-12-06T17:05:46.000Z,76.20
2018-12-06T17:08:14.563Z,76.20
2018-12-06T17:10:42.984Z,76.20
2018-12-06T17:13:11.466Z,76.10
2018-12-06T17:15:40.008Z,76.00
2018-12-06T17:18:08.522Z,76.10
2018-12-06T17:20:37.087Z,76.00
2018-12-06T17:23:06.526Z,76.10
2018-12-06T17:25:35.048Z,76.00
2018-12-06T17:28:04.747Z,75.90
2018-12-06T17:30:33.372Z,75.90
2018-12-06T17:33:01.733Z,75.70
2018-12-06T17:35:30.243Z,75.70
2018-12-06T17:37:58.739Z,75.70
2018-12-06T17:40:29.151Z,75.70
2018-12-06T17:42:57.695Z,75.70
2018-12-06T17:45:26.246Z,75.70
2018-12-06T17:47:55.866Z,75.70
2018-12-06T17:50:24.427Z,75.60
2018-12-06T17:52:54.294Z,76.30
2018-12-06T17:55:24.266Z,75.70
2018-12-06T17:57:56.778Z,75.70
2018-12-06T18:00:27.346Z,75.70
2018-12-06T18:02:56.790Z,75.70
2018-12-06T18:05:25.363Z,75.80
2018-12-06T18:07:53.838Z,75.70
2018-12-06T18:10:22.628Z,75.60
2018-12-06T18:12:51.411Z,75.50
2018-12-06T18:15:20.166Z,75.70
2018-12-06T18:17:48.660Z,75.70
2018-12-06T18:20:17.210Z,75.70
2018-12-06T18:22:45.672Z,75.70
2018-12-06T18:25:14.130Z,75.70
2018-12-06T18:27:42.617Z,75.70
2018-12-06T18:30:11.203Z,75.70
2018-12-06T18:32:54.965Z,75.70
2018-12-06T18:35:35.615Z,75.80
2018-12-06T18:38:06.006Z,75.70
2018-12-06T18:40:38.499Z,75.70
2018-12-06T18:43:18.934Z,75.90
2018-12-06T18:45:47.253Z,75.80
2018-12-06T18:48:15.719Z,76.00
2018-12-06T18:50:46.107Z,76.00
2018-12-06T18:53:16.665Z,76.10
2018-12-06T18:55:52.594Z,75.80
2018-12-06T18:58:21.025Z,75.90
2018-12-06T19:00:49.476Z,76.00
2018-12-06T19:03:19.041Z,76.00
2018-12-06T19:05:47.544Z,76.20
2018-12-06T19:08:22.572Z,76.20
2018-12-06T19:10:50.971Z,76.10
2018-12-06T19:13:20.328Z,76.10
2018-12-06T19:15:48.730Z,76.10
2018-12-06T19:18:17.109Z,76.10
2018-12-06T19:20:49.504Z,76.00
2018-12-06T19:23:17.957Z,76.10
2018-12-06T19:25:50.480Z,76.20
2018-12-06T19:28:18.925Z,76.10
2018-12-06T19:30:53.251Z,76.10
2018-12-06T19:33:28.113Z,76.20
2018-12-06T19:35:56.557Z,76.10
2018-12-06T19:38:40.510Z,76.20
2018-12-06T19:41:11.139Z,76.30
2018-12-06T19:43:39.612Z,77.10
2018-12-06T19:46:08.017Z,76.80
2018-12-06T19:48:48.114Z,76.30
2018-12-06T19:51:18.573Z,76.20
2018-12-06T19:53:53.494Z,76.20
2018-12-06T19:56:35.065Z,76.20
2018-12-06T19:59:22.207Z,76.20
2018-12-06T20:01:51.610Z,76.20
2018-12-06T20:04:25.954Z,76.20
2018-12-06T20:06:58.297Z,76.20
2018-12-06T20:09:30.681Z,76.20
2018-12-06T20:12:02.116Z,76.20
2018-12-06T20:14:30.620Z,76.30
2018-12-06T20:16:59.062Z,76.20
2018-12-06T20:19:28.550Z,76.10
2018-12-06T20:21:57.029Z,76.30
2018-12-06T20:24:26.535Z,76.30
2018-12-06T20:26:55.042Z,76.40
2018-12-06T20:29:24.503Z,76.30
2018-12-06T20:31:55.403Z,76.40
2018-12-06T20:34:23.793Z,76.50
2018-12-06T20:36:53.264Z,76.30
2018-12-06T20:39:21.739Z,76.40
2018-12-06T20:41:50.223Z,76.20
2018-12-06T20:44:18.806Z,76.20
2018-12-06T20:46:48.204Z,76.10
2018-12-06T20:49:17.712Z,76.00
2018-12-06T20:51:47.178Z,76.10
2018-12-06T20:54:16.745Z,76.10
2018-12-06T20:56:45.210Z,76.10
2018-12-06T20:59:13.704Z,75.90
2018-12-06T21:01:42.154Z,75.90
2018-12-06T21:04:11.695Z,75.90
2018-12-06T21:06:40.107Z,76.00
2018-12-06T21:09:08.654Z,76.00
2018-12-06T21:11:39.586Z,76.00
2018-12-06T21:14:08.007Z,75.90
2018-12-06T21:16:46.189Z,75.80
2018-12-06T21:19:14.702Z,76.00
2018-12-06T21:21:43.111Z,75.90
2018-12-06T21:24:15.672Z,75.90
2018-12-06T21:26:45.049Z,76.10
2018-12-06T21:29:19.358Z,76.20
2018-12-06T21:31:48.756Z,76.20
2018-12-06T21:34:21.157Z,76.20
2018-12-06T21:36:49.850Z,76.20
2018-12-06T21:39:18.303Z,76.20
2018-12-06T21:41:47.747Z,76.20
2018-12-06T21:44:16.181Z,76.20
2018-12-06T21:46:44.486Z,76.20
2018-12-06T21:49:12.952Z,76.30
2018-12-06T21:51:41.311Z,76.60
2018-12-06T21:54:09.657Z,76.40
2018-12-06T21:56:38.085Z,76.50
2018-12-06T21:59:10.423Z,76.50
2018-12-06T22:01:42.778Z,76.40
2018-12-06T22:04:16.228Z,76.50
2018-12-06T22:06:44.582Z,76.50
2018-12-06T22:09:12.977Z,76.40
2018-12-06T22:11:45.137Z,76.40
2018-12-06T22:14:13.515Z,76.40
2018-12-06T22:16:41.910Z,76.30
2018-12-06T22:19:10.274Z,76.30
2018-12-06T22:21:41.750Z,76.20
2018-12-06T22:24:12.150Z,76.20
2018-12-06T22:26:40.482Z,76.10
2018-12-06T22:29:11.731Z,76.10
2018-12-06T22:31:41.053Z,76.20
2018-12-06T22:34:10.441Z,76.20
2018-12-06T22:36:38.854Z,76.10
2018-12-06T22:39:09.684Z,76.20
2018-12-06T22:41:44.001Z,76.20
2018-12-06T22:44:17.393Z,76.10
2018-12-06T22:46:49.673Z,76.10
2018-12-06T22:49:20.534Z,76.00
2018-12-06T22:51:50.931Z,75.90
2018-12-06T22:54:26.781Z,75.90
2018-12-06T22:56:56.209Z,75.90
2018-12-06T22:59:24.701Z,75.90
2018-12-06T23:01:54.770Z,75.90
2018-12-06T23:04:24.184Z,76.00
2018-12-06T23:06:53.556Z,76.00
2018-12-06T23:09:21.999Z,76.00
2018-12-06T23:11:50.357Z,76.70
2018-12-06T23:14:19.727Z,76.00
2018-12-06T23:16:48.130Z,75.90
2018-12-06T23:19:16.608Z,76.00
2018-12-06T23:21:47.449Z,76.00
2018-12-06T23:24:15.892Z,76.10
2018-12-06T23:26:46.239Z,76.10
2018-12-06T23:29:15.648Z,76.10
2018-12-06T23:31:44.118Z,76.00
2018-12-06T23:34:12.507Z,76.10
2018-12-06T23:36:41.012Z,76.20
2018-12-06T23:39:10.391Z,76.20
2018-12-06T23:41:38.765Z,76.20
2018-12-06T23:44:07.165Z,76.20
2018-12-06T23:46:36.568Z,76.30
2018-12-06T23:49:04.917Z,76.20
2018-12-06T23:51:37.274Z,76.40
2018-12-06T23:54:05.857Z,76.70
2018-12-06T23:56:34.293Z,76.70
2018-12-06T23:59:02.761Z,76.80
